sensor_id;sensor_type;location;lat;lon;timestamp;pressure;altitude;pressure_sealevel;temperature;humidity
26859;BME280;14429;48.346;16.338;2023-04-21T00:01:01;99733.59;;;14.60;51.90
26859;BME280;14429;48.346;16.338;2023-04-21T00:03:26;99732.72;;;14.60;52.64
26859;BME280;14429;48.346;16.338;2023-04-21T00:05:54;99737.66;;;14.13;54.59
26859;BME280;14429;48.346;16.338;2023-04-21T00:08:20;99735.97;;;14.43;53.35
26859;BME280;14429;48.346;16.338;2023-04-21T00:10:46;99732.41;;;14.54;52.73
26859;BME280;14429;48.346;16.338;2023-04-21T00:13:11;99724.03;;;14.67;52.05
26859;BME280;14429;48.346;16.338;2023-04-21T00:15:37;99717.88;;;14.76;51.78
26859;BME280;14429;48.346;16.338;2023-04-21T00:18:03;99726.13;;;14.84;50.95
26859;BME280;14429;48.346;16.338;2023-04-21T00:20:29;99721.09;;;14.90;50.70
26859;BME280;14429;48.346;16.338;2023-04-21T00:22:59;99723.38;;;14.95;50.46
26859;BME280;14429;48.346;16.338;2023-04-21T00:25:24;99728.41;;;14.88;50.47
26859;BME280;14429;48.346;16.338;2023-04-21T00:27:50;99726.28;;;14.82;51.64
26859;BME280;14429;48.346;16.338;2023-04-21T00:30:16;99724.53;;;14.82;52.17
26859;BME280;14429;48.346;16.338;2023-04-21T00:32:42;99728.94;;;14.82;52.27
26859;BME280;14429;48.346;16.338;2023-04-21T00:35:08;99721.84;;;14.82;52.09
26859;BME280;14429;48.346;16.338;2023-04-21T00:37:34;99739.94;;;14.80;51.78
26859;BME280;14429;48.346;16.338;2023-04-21T00:40:00;99727.50;;;14.79;51.65
26859;BME280;14429;48.346;16.338;2023-04-21T00:42:26;99724.44;;;14.83;51.38
26859;BME280;14429;48.346;16.338;2023-04-21T00:44:51;99716.56;;;14.91;50.87
26859;BME280;14429;48.346;16.338;2023-04-21T00:47:17;99717.28;;;14.93;50.65
26859;BME280;14429;48.346;16.338;2023-04-21T00:49:43;99710.34;;;14.90;50.48
26859;BME280;14429;48.346;16.338;2023-04-21T00:52:08;99719.22;;;14.30;52.31
26859;BME280;14429;48.346;16.338;2023-04-21T00:54:35;99720.56;;;14.56;52.22
26859;BME280;14429;48.346;16.338;2023-04-21T00:57:02;99728.53;;;14.16;51.98
26859;BME280;14429;48.346;16.338;2023-04-21T00:59:27;99728.34;;;13.21;57.02
26859;BME280;14429;48.346;16.338;2023-04-21T01:01:53;99732.47;;;13.25;57.74
26859;BME280;14429;48.346;16.338;2023-04-21T01:04:18;99724.78;;;13.86;54.82
26859;BME280;14429;48.346;16.338;2023-04-21T01:06:44;99725.88;;;13.83;53.45
26859;BME280;14429;48.346;16.338;2023-04-21T01:09:09;99729.78;;;14.01;53.61
26859;BME280;14429;48.346;16.338;2023-04-21T01:11:35;99730.28;;;13.63;53.71
26859;BME280;14429;48.346;16.338;2023-04-21T01:14:02;99740.81;;;12.55;59.04
26859;BME280;14429;48.346;16.338;2023-04-21T01:16:27;99730.31;;;13.20;56.97
26859;BME280;14429;48.346;16.338;2023-04-21T01:18:53;99735.16;;;13.58;55.22
26859;BME280;14429;48.346;16.338;2023-04-21T01:21:19;99726.47;;;13.87;54.93
26859;BME280;14429;48.346;16.338;2023-04-21T01:23:46;99720.25;;;14.08;54.67
26859;BME280;14429;48.346;16.338;2023-04-21T01:26:11;99716.03;;;14.26;54.11
26859;BME280;14429;48.346;16.338;2023-04-21T01:28:37;99720.66;;;14.34;53.43
26859;BME280;14429;48.346;16.338;2023-04-21T01:31:02;99730.00;;;13.87;53.57
26859;BME280;14429;48.346;16.338;2023-04-21T01:33:28;99734.41;;;13.99;53.94
26859;BME280;14429;48.346;16.338;2023-04-21T01:35:54;99725.63;;;14.39;52.43
26859;BME280;14429;48.346;16.338;2023-04-21T01:38:19;99729.81;;;14.52;51.81
26859;BME280;14429;48.346;16.338;2023-04-21T01:40:48;99723.94;;;14.58;51.28
26859;BME280;14429;48.346;16.338;2023-04-21T01:43:17;99722.00;;;14.60;51.35
26859;BME280;14429;48.346;16.338;2023-04-21T01:45:42;99723.81;;;14.59;51.56
26859;BME280;14429;48.346;16.338;2023-04-21T01:48:08;99720.56;;;14.56;52.32
26859;BME280;14429;48.346;16.338;2023-04-21T01:50:33;99720.81;;;14.53;52.88
26859;BME280;14429;48.346;16.338;2023-04-21T01:52:59;99724.19;;;14.55;52.90
26859;BME280;14429;48.346;16.338;2023-04-21T01:55:25;99718.31;;;14.61;52.45
26859;BME280;14429;48.346;16.338;2023-04-21T01:57:52;99712.41;;;14.67;51.84
26859;BME280;14429;48.346;16.338;2023-04-21T02:00:18;99719.50;;;14.68;51.68
26859;BME280;14429;48.346;16.338;2023-04-21T02:02:43;99712.50;;;14.76;50.99
26859;BME280;14429;48.346;16.338;2023-04-21T02:05:09;99716.88;;;14.77;50.78
26859;BME280;14429;48.346;16.338;2023-04-21T02:07:34;99722.66;;;14.11;51.33
26859;BME280;14429;48.346;16.338;2023-04-21T02:10:00;99721.31;;;14.47;51.54
26859;BME280;14429;48.346;16.338;2023-04-21T02:12:25;99715.25;;;14.45;51.78
26859;BME280;14429;48.346;16.338;2023-04-21T02:14:52;99719.28;;;14.09;52.18
26859;BME280;14429;48.346;16.338;2023-04-21T02:17:17;99721.25;;;14.38;53.33
26859;BME280;14429;48.346;16.338;2023-04-21T02:19:43;99724.22;;;13.50;54.75
26859;BME280;14429;48.346;16.338;2023-04-21T02:22:08;99718.09;;;13.80;54.74
26859;BME280;14429;48.346;16.338;2023-04-21T02:24:34;99712.94;;;13.99;53.67
26859;BME280;14429;48.346;16.338;2023-04-21T02:26:59;99729.53;;;13.07;56.42
26859;BME280;14429;48.346;16.338;2023-04-21T02:29:25;99714.66;;;13.89;53.86
26859;BME280;14429;48.346;16.338;2023-04-21T02:31:51;99717.41;;;13.24;54.18
26859;BME280;14429;48.346;16.338;2023-04-21T02:34:17;99724.41;;;13.90;53.40
26859;BME280;14429;48.346;16.338;2023-04-21T02:36:42;99718.84;;;13.28;54.58
26859;BME280;14429;48.346;16.338;2023-04-21T02:39:08;99717.16;;;13.71;53.26
26859;BME280;14429;48.346;16.338;2023-04-21T02:41:33;99715.38;;;13.91;54.34
26859;BME280;14429;48.346;16.338;2023-04-21T02:43:59;99705.88;;;14.09;54.24
26859;BME280;14429;48.346;16.338;2023-04-21T02:46:24;99711.66;;;14.25;53.63
26859;BME280;14429;48.346;16.338;2023-04-21T02:48:51;99713.00;;;14.30;53.13
26859;BME280;14429;48.346;16.338;2023-04-21T02:51:16;99715.53;;;14.31;52.81
26859;BME280;14429;48.346;16.338;2023-04-21T02:53:42;99714.44;;;14.34;52.47
26859;BME280;14429;48.346;16.338;2023-04-21T02:56:08;99708.63;;;14.49;51.73
26859;BME280;14429;48.346;16.338;2023-04-21T02:58:34;99717.72;;;14.57;51.26
26859;BME280;14429;48.346;16.338;2023-04-21T03:00:59;99715.41;;;14.64;50.86
26859;BME280;14429;48.346;16.338;2023-04-21T03:03:25;99717.03;;;14.45;51.38
26859;BME280;14429;48.346;16.338;2023-04-21T03:05:56;99716.19;;;14.44;52.00
26859;BME280;14429;48.346;16.338;2023-04-21T03:08:23;99713.50;;;14.44;52.55
26859;BME280;14429;48.346;16.338;2023-04-21T03:10:48;99713.50;;;14.44;53.04
26859;BME280;14429;48.346;16.338;2023-04-21T03:13:14;99718.63;;;14.47;52.74
26859;BME280;14429;48.346;16.338;2023-04-21T03:15:39;99724.97;;;14.46;52.38
26859;BME280;14429;48.346;16.338;2023-04-21T03:18:04;99723.09;;;14.37;52.61
26859;BME280;14429;48.346;16.338;2023-04-21T03:20:30;99726.69;;;14.47;52.13
26859;BME280;14429;48.346;16.338;2023-04-21T03:22:58;99722.00;;;14.60;51.37
26859;BME280;14429;48.346;16.338;2023-04-21T03:25:23;99719.63;;;14.66;50.93
26859;BME280;14429;48.346;16.338;2023-04-21T03:27:49;99723.16;;;14.67;50.47
26859;BME280;14429;48.346;16.338;2023-04-21T03:30:14;99724.38;;;14.12;50.73
26859;BME280;14429;48.346;16.338;2023-04-21T03:32:40;99736.50;;;14.37;52.09
26859;BME280;14429;48.346;16.338;2023-04-21T03:35:05;99721.56;;;14.44;52.63
26859;BME280;14429;48.346;16.338;2023-04-21T03:37:31;99719.63;;;14.46;52.84
26859;BME280;14429;48.346;16.338;2023-04-21T03:39:58;99716.94;;;14.46;52.49
26859;BME280;14429;48.346;16.338;2023-04-21T03:42:23;99724.00;;;14.47;52.31
26859;BME280;14429;48.346;16.338;2023-04-21T03:44:49;99718.63;;;14.47;51.95
26859;BME280;14429;48.346;16.338;2023-04-21T03:47:15;99722.75;;;14.51;51.68
26859;BME280;14429;48.346;16.338;2023-04-21T03:49:41;99714.19;;;14.57;51.23
26859;BME280;14429;48.346;16.338;2023-04-21T03:52:06;99714.66;;;14.62;50.80
26859;BME280;14429;48.346;16.338;2023-04-21T03:54:31;99715.19;;;14.56;50.81
26859;BME280;14429;48.346;16.338;2023-04-21T03:56:58;99720.13;;;14.40;51.33
26859;BME280;14429;48.346;16.338;2023-04-21T03:59:24;99730.84;;;14.40;51.79
26859;BME280;14429;48.346;16.338;2023-04-21T04:01:49;99724.63;;;14.40;52.59
26859;BME280;14429;48.346;16.338;2023-04-21T04:04:14;99738.78;;;14.42;52.99
26859;BME280;14429;48.346;16.338;2023-04-21T04:06:40;99728.66;;;14.45;52.59
26859;BME280;14429;48.346;16.338;2023-04-21T04:09:05;99732.56;;;14.41;52.39
26859;BME280;14429;48.346;16.338;2023-04-21T04:11:31;99720.69;;;14.24;52.35
26859;BME280;14429;48.346;16.338;2023-04-21T04:13:58;99738.91;;;14.40;51.87
26859;BME280;14429;48.346;16.338;2023-04-21T04:16:23;99733.97;;;14.56;51.21
26859;BME280;14429;48.346;16.338;2023-04-21T04:18:49;99734.19;;;14.64;50.68
26859;BME280;14429;48.346;16.338;2023-04-21T04:21:14;99737.81;;;14.63;50.52
26859;BME280;14429;48.346;16.338;2023-04-21T04:23:40;99739.81;;;14.61;50.67
26859;BME280;14429;48.346;16.338;2023-04-21T04:26:05;99741.16;;;14.55;51.71
26859;BME280;14429;48.346;16.338;2023-04-21T04:28:31;99744.97;;;14.53;52.23
26859;BME280;14429;48.346;16.338;2023-04-21T04:30:58;99751.88;;;14.55;52.38
26859;BME280;14429;48.346;16.338;2023-04-21T04:33:23;99755.91;;;14.61;51.96
26859;BME280;14429;48.346;16.338;2023-04-21T04:35:49;99747.53;;;14.75;51.44
26859;BME280;14429;48.346;16.338;2023-04-21T04:38:15;99758.84;;;14.78;50.94
26859;BME280;14429;48.346;16.338;2023-04-21T04:40:40;99751.59;;;14.89;50.45
26859;BME280;14429;48.346;16.338;2023-04-21T04:43:07;99756.19;;;14.98;49.92
26859;BME280;14429;48.346;16.338;2023-04-21T04:45:33;99741.91;;;14.98;49.57
26859;BME280;14429;48.346;16.338;2023-04-21T04:48:00;99740.34;;;14.95;49.51
26859;BME280;14429;48.346;16.338;2023-04-21T04:50:26;99747.41;;;14.96;49.75
26859;BME280;14429;48.346;16.338;2023-04-21T04:52:51;99751.59;;;14.89;50.80
26859;BME280;14429;48.346;16.338;2023-04-21T04:55:17;99757.75;;;14.81;51.43
26859;BME280;14429;48.346;16.338;2023-04-21T04:57:43;99749.00;;;14.79;51.58
26859;BME280;14429;48.346;16.338;2023-04-21T05:00:09;99753.47;;;14.78;51.37
26859;BME280;14429;48.346;16.338;2023-04-21T05:02:35;99756.91;;;14.80;51.28
26859;BME280;14429;48.346;16.338;2023-04-21T05:05:02;99765.34;;;14.76;50.97
26859;BME280;14429;48.346;16.338;2023-04-21T05:07:27;99756.31;;;14.77;50.71
26859;BME280;14429;48.346;16.338;2023-04-21T05:09:53;99767.03;;;14.77;50.40
26859;BME280;14429;48.346;16.338;2023-04-21T05:12:18;99764.81;;;14.82;50.27
26859;BME280;14429;48.346;16.338;2023-04-21T05:14:44;99769.88;;;14.75;50.95
26859;BME280;14429;48.346;16.338;2023-04-21T05:17:10;99765.69;;;14.82;50.59
26859;BME280;14429;48.346;16.338;2023-04-21T05:19:35;99765.00;;;14.69;51.18
26859;BME280;14429;48.346;16.338;2023-04-21T05:22:02;99763.31;;;14.68;51.64
26859;BME280;14429;48.346;16.338;2023-04-21T05:24:28;99768.09;;;14.65;51.87
26859;BME280;14429;48.346;16.338;2023-04-21T05:26:53;99766.09;;;14.47;53.02
26859;BME280;14429;48.346;16.338;2023-04-21T05:29:19;99770.81;;;14.54;52.33
26859;BME280;14429;48.346;16.338;2023-04-21T05:31:44;99770.63;;;14.66;51.71
26859;BME280;14429;48.346;16.338;2023-04-21T05:34:09;99777.97;;;14.64;51.21
26859;BME280;14429;48.346;16.338;2023-04-21T05:36:35;99772.66;;;14.74;50.99
26859;BME280;14429;48.346;16.338;2023-04-21T05:39:02;99774.41;;;14.75;50.86
26859;BME280;14429;48.346;16.338;2023-04-21T05:41:27;99779.22;;;14.81;50.24
26859;BME280;14429;48.346;16.338;2023-04-21T05:43:53;99781.19;;;14.79;50.44
26859;BME280;14429;48.346;16.338;2023-04-21T05:46:18;99777.53;;;14.80;50.82
26859;BME280;14429;48.346;16.338;2023-04-21T05:48:44;99774.84;;;14.80;51.13
26859;BME280;14429;48.346;16.338;2023-04-21T05:51:10;99770.19;;;14.82;51.39
26859;BME280;14429;48.346;16.338;2023-04-21T05:53:36;99779.13;;;15.02;50.88
26859;BME280;14429;48.346;16.338;2023-04-21T05:56:03;99776.25;;;15.35;50.01
26859;BME280;14429;48.346;16.338;2023-04-21T05:58:29;99781.19;;;15.59;49.32
26859;BME280;14429;48.346;16.338;2023-04-21T06:00:55;99780.69;;;15.74;49.45
26859;BME280;14429;48.346;16.338;2023-04-21T06:03:20;99784.38;;;15.73;50.33
26859;BME280;14429;48.346;16.338;2023-04-21T06:05:46;99786.66;;;15.78;48.72
26859;BME280;14429;48.346;16.338;2023-04-21T06:08:11;99781.22;;;15.98;48.45
26859;BME280;14429;48.346;16.338;2023-04-21T06:10:37;99787.66;;;15.86;48.62
26859;BME280;14429;48.346;16.338;2023-04-21T06:13:04;99790.81;;;15.91;49.63
26859;BME280;14429;48.346;16.338;2023-04-21T06:15:29;99789.56;;;15.95;53.01
26859;BME280;14429;48.346;16.338;2023-04-21T06:17:55;99781.91;;;15.91;49.69
26859;BME280;14429;48.346;16.338;2023-04-21T06:20:21;99783.34;;;15.94;52.07
26859;BME280;14429;48.346;16.338;2023-04-21T06:22:46;99788.25;;;16.19;53.09
26859;BME280;14429;48.346;16.338;2023-04-21T06:25:11;99784.78;;;16.08;49.31
26859;BME280;14429;48.346;16.338;2023-04-21T06:27:37;99781.69;;;16.12;49.75
26859;BME280;14429;48.346;16.338;2023-04-21T06:30:05;99793.66;;;16.38;53.74
26859;BME280;14429;48.346;16.338;2023-04-21T06:32:30;99779.34;;;16.28;50.90
26859;BME280;14429;48.346;16.338;2023-04-21T06:34:56;99783.19;;;16.44;52.61
26859;BME280;14429;48.346;16.338;2023-04-21T06:37:21;99784.03;;;16.45;51.85
26859;BME280;14429;48.346;16.338;2023-04-21T06:39:47;99789.13;;;16.38;52.57
26859;BME280;14429;48.346;16.338;2023-04-21T06:42:12;99789.97;;;16.20;48.87
26859;BME280;14429;48.346;16.338;2023-04-21T06:44:37;99785.44;;;16.30;50.43
26859;BME280;14429;48.346;16.338;2023-04-21T06:47:04;99775.28;;;16.43;51.38
26859;BME280;14429;48.346;16.338;2023-04-21T06:49:30;99779.75;;;16.23;48.55
26859;BME280;14429;48.346;16.338;2023-04-21T06:51:55;99781.22;;;16.07;48.47
26859;BME280;14429;48.346;16.338;2023-04-21T06:54:21;99782.69;;;16.11;48.13
26859;BME280;14429;48.346;16.338;2023-04-21T06:56:46;99780.72;;;16.13;48.43
26859;BME280;14429;48.346;16.338;2023-04-21T06:59:11;99778.47;;;16.18;48.25
26859;BME280;14429;48.346;16.338;2023-04-21T07:01:37;99772.97;;;16.38;51.97
26859;BME280;14429;48.346;16.338;2023-04-21T07:04:04;99783.63;;;16.40;49.85
26859;BME280;14429;48.346;16.338;2023-04-21T07:06:29;99776.25;;;16.42;50.46
26859;BME280;14429;48.346;16.338;2023-04-21T07:08:55;99782.63;;;16.41;49.89
26859;BME280;14429;48.346;16.338;2023-04-21T07:11:20;99783.50;;;16.50;50.80
26859;BME280;14429;48.346;16.338;2023-04-21T07:13:45;99785.13;;;16.23;48.81
26859;BME280;14429;48.346;16.338;2023-04-21T07:16:11;99782.47;;;16.42;51.45
26859;BME280;14429;48.346;16.338;2023-04-21T07:18:38;99785.31;;;16.31;48.72
26859;BME280;14429;48.346;16.338;2023-04-21T07:21:05;99781.44;;;16.15;48.16
26859;BME280;14429;48.346;16.338;2023-04-21T07:23:30;99791.00;;;16.08;48.27
26859;BME280;14429;48.346;16.338;2023-04-21T07:25:56;99782.69;;;16.11;48.09
26859;BME280;14429;48.346;16.338;2023-04-21T07:28:21;99785.88;;;16.35;50.37
26859;BME280;14429;48.346;16.338;2023-04-21T07:30:47;99790.72;;;16.59;48.25
26859;BME280;14429;48.346;16.338;2023-04-21T07:33:12;99785.50;;;16.86;49.01
26859;BME280;14429;48.346;16.338;2023-04-21T07:35:38;99781.78;;;16.87;49.33
26859;BME280;14429;48.346;16.338;2023-04-21T07:38:05;99783.78;;;16.85;47.89
26859;BME280;14429;48.346;16.338;2023-04-21T07:40:30;99790.03;;;17.32;48.24
26859;BME280;14429;48.346;16.338;2023-04-21T07:42:56;99783.63;;;17.05;47.00
26859;BME280;14429;48.346;16.338;2023-04-21T07:45:21;99780.00;;;17.60;47.66
26859;BME280;14429;48.346;16.338;2023-04-21T07:47:46;99781.34;;;17.83;46.48
26859;BME280;14429;48.346;16.338;2023-04-21T07:50:12;99778.69;;;17.00;46.09
26859;BME280;14429;48.346;16.338;2023-04-21T07:52:37;99785.22;;;16.98;47.13
26859;BME280;14429;48.346;16.338;2023-04-21T07:55:05;99784.53;;;17.69;46.54
26859;BME280;14429;48.346;16.338;2023-04-21T07:57:30;99775.34;;;17.53;46.28
26859;BME280;14429;48.346;16.338;2023-04-21T07:59:56;99778.13;;;17.70;47.00
26859;BME280;14429;48.346;16.338;2023-04-21T08:02:21;99793.50;;;17.60;47.02
26859;BME280;14429;48.346;16.338;2023-04-21T08:04:47;99793.25;;;18.26;45.82
26859;BME280;14429;48.346;16.338;2023-04-21T08:07:12;99795.09;;;18.25;44.34
26859;BME280;14429;48.346;16.338;2023-04-21T08:09:38;99786.47;;;18.39;44.22
26859;BME280;14429;48.346;16.338;2023-04-21T08:12:05;99785.56;;;19.09;43.40
26859;BME280;14429;48.346;16.338;2023-04-21T08:14:30;99789.47;;;18.63;42.55
26859;BME280;14429;48.346;16.338;2023-04-21T08:16:55;99789.00;;;18.84;42.08
26859;BME280;14429;48.346;16.338;2023-04-21T08:19:21;99785.22;;;18.60;42.95
26859;BME280;14429;48.346;16.338;2023-04-21T08:21:46;99791.00;;;18.48;44.08
26859;BME280;14429;48.346;16.338;2023-04-21T08:24:12;99783.00;;;18.90;43.68
26859;BME280;14429;48.346;16.338;2023-04-21T08:26:37;99779.88;;;18.51;43.01
26859;BME280;14429;48.346;16.338;2023-04-21T08:29:04;99781.38;;;19.14;41.62
26859;BME280;14429;48.346;16.338;2023-04-21T08:31:30;99781.91;;;18.39;43.61
26859;BME280;14429;48.346;16.338;2023-04-21T08:33:55;99776.19;;;19.20;43.59
26859;BME280;14429;48.346;16.338;2023-04-21T08:36:21;99781.41;;;19.39;41.13
26859;BME280;14429;48.346;16.338;2023-04-21T08:38:46;99781.88;;;18.83;42.78
26859;BME280;14429;48.346;16.338;2023-04-21T08:41:12;99773.66;;;19.02;42.06
26859;BME280;14429;48.346;16.338;2023-04-21T08:43:37;99777.88;;;18.53;42.41
26859;BME280;14429;48.346;16.338;2023-04-21T08:46:06;99782.03;;;18.21;44.03
26859;BME280;14429;48.346;16.338;2023-04-21T08:48:34;99779.88;;;18.24;42.32
26859;BME280;14429;48.346;16.338;2023-04-21T08:51:01;99768.41;;;18.22;42.83
26859;BME280;14429;48.346;16.338;2023-04-21T08:53:27;99769.38;;;18.48;41.70
26859;BME280;14429;48.346;16.338;2023-04-21T08:55:54;99787.88;;;18.43;42.48
26859;BME280;14429;48.346;16.338;2023-04-21T08:58:20;99773.72;;;18.32;43.02
26859;BME280;14429;48.346;16.338;2023-04-21T09:00:45;99769.63;;;17.11;45.95
26859;BME280;14429;48.346;16.338;2023-04-21T09:03:12;99772.06;;;17.59;44.62
26859;BME280;14429;48.346;16.338;2023-04-21T09:05:37;99772.81;;;17.87;43.57
26859;BME280;14429;48.346;16.338;2023-04-21T09:08:07;99770.91;;;18.33;42.78
26859;BME280;14429;48.346;16.338;2023-04-21T09:10:33;99776.75;;;17.93;43.76
26859;BME280;14429;48.346;16.338;2023-04-21T09:12:58;99776.09;;;18.44;41.69
26859;BME280;14429;48.346;16.338;2023-04-21T09:15:24;99769.53;;;18.20;42.30
26859;BME280;14429;48.346;16.338;2023-04-21T09:17:54;99769.91;;;18.08;42.83
26859;BME280;14429;48.346;16.338;2023-04-21T09:20:22;99765.09;;;18.28;41.33
26859;BME280;14429;48.346;16.338;2023-04-21T09:22:48;99766.50;;;18.49;40.22
26859;BME280;14429;48.346;16.338;2023-04-21T09:25:15;99761.66;;;18.53;41.58
26859;BME280;14429;48.346;16.338;2023-04-21T09:27:41;99762.13;;;18.65;40.79
26859;BME280;14429;48.346;16.338;2023-04-21T09:30:07;99760.81;;;18.08;42.06
26859;BME280;14429;48.346;16.338;2023-04-21T09:32:36;99765.50;;;18.07;42.51
26859;BME280;14429;48.346;16.338;2023-04-21T09:35:02;99772.44;;;18.09;41.82
26859;BME280;14429;48.346;16.338;2023-04-21T09:37:31;99768.16;;;17.80;43.28
26859;BME280;14429;48.346;16.338;2023-04-21T09:39:58;99769.63;;;18.10;41.77
26859;BME280;14429;48.346;16.338;2023-04-21T09:42:27;99769.88;;;17.81;43.33
26859;BME280;14429;48.346;16.338;2023-04-21T09:44:53;99754.97;;;17.77;41.97
26859;BME280;14429;48.346;16.338;2023-04-21T09:47:18;99753.59;;;17.19;45.73
26859;BME280;14429;48.346;16.338;2023-04-21T09:49:46;99757.97;;;17.29;45.79
26859;BME280;14429;48.346;16.338;2023-04-21T09:52:16;99756.16;;;17.65;44.26
26859;BME280;14429;48.346;16.338;2023-04-21T09:54:56;99751.47;;;17.94;43.00
26859;BME280;14429;48.346;16.338;2023-04-21T09:57:25;99756.44;;;17.62;44.20
26859;BME280;14429;48.346;16.338;2023-04-21T09:59:55;99748.38;;;17.89;43.97
26859;BME280;14429;48.346;16.338;2023-04-21T10:02:24;99746.97;;;17.85;43.34
26859;BME280;14429;48.346;16.338;2023-04-21T10:04:50;99737.84;;;17.95;42.34
26859;BME280;14429;48.346;16.338;2023-04-21T10:07:16;99733.41;;;18.30;43.06
26859;BME280;14429;48.346;16.338;2023-04-21T10:09:46;99728.59;;;18.24;41.28
26859;BME280;14429;48.346;16.338;2023-04-21T10:12:13;99729.50;;;18.15;41.29
26859;BME280;14429;48.346;16.338;2023-04-21T10:14:39;99737.00;;;17.14;45.79
26859;BME280;14429;48.346;16.338;2023-04-21T10:17:06;99731.28;;;17.98;41.41
26859;BME280;14429;48.346;16.338;2023-04-21T10:19:33;99730.19;;;18.44;41.21
26859;BME280;14429;48.346;16.338;2023-04-21T10:21:59;99722.28;;;18.33;41.10
26859;BME280;14429;48.346;16.338;2023-04-21T10:24:27;99729.47;;;18.42;40.28
26859;BME280;14429;48.346;16.338;2023-04-21T10:26:56;99718.38;;;18.45;40.08
26859;BME280;14429;48.346;16.338;2023-04-21T10:29:28;99719.81;;;18.22;40.00
26859;BME280;14429;48.346;16.338;2023-04-21T10:31:53;99718.81;;;18.58;39.38
26859;BME280;14429;48.346;16.338;2023-04-21T10:34:21;99711.06;;;18.28;41.04
26859;BME280;14429;48.346;16.338;2023-04-21T10:37:10;99711.03;;;18.55;40.81
26859;BME280;14429;48.346;16.338;2023-04-21T10:39:42;99709.66;;;18.51;41.85
26859;BME280;14429;48.346;16.338;2023-04-21T10:42:20;99707.84;;;18.42;42.30
26859;BME280;14429;48.346;16.338;2023-04-21T10:44:51;99711.78;;;18.30;42.93
26859;BME280;14429;48.346;16.338;2023-04-21T10:47:24;99705.38;;;18.14;43.34
26859;BME280;14429;48.346;16.338;2023-04-21T10:49:49;99702.59;;;18.23;42.73
26859;BME280;14429;48.346;16.338;2023-04-21T10:52:14;99707.75;;;17.90;43.12
26859;BME280;14429;48.346;16.338;2023-04-21T10:54:42;99701.88;;;17.95;43.04
26859;BME280;14429;48.346;16.338;2023-04-21T10:57:09;99701.66;;;18.15;42.72
26859;BME280;14429;48.346;16.338;2023-04-21T10:59:36;99694.03;;;18.10;41.80
26859;BME280;14429;48.346;16.338;2023-04-21T11:02:02;99688.66;;;18.45;39.36
26859;BME280;14429;48.346;16.338;2023-04-21T11:04:28;99688.41;;;18.38;40.36
26859;BME280;14429;48.346;16.338;2023-04-21T11:07:04;99688.50;;;18.63;40.00
26859;BME280;14429;48.346;16.338;2023-04-21T11:09:30;99691.19;;;18.29;40.56
26859;BME280;14429;48.346;16.338;2023-04-21T11:11:57;99690.19;;;18.30;40.47
26859;BME280;14429;48.346;16.338;2023-04-21T11:14:23;99680.44;;;18.03;39.51
26859;BME280;14429;48.346;16.338;2023-04-21T11:16:49;99684.53;;;18.07;41.85
26859;BME280;14429;48.346;16.338;2023-04-21T11:19:15;99682.31;;;17.66;43.46
26859;BME280;14429;48.346;16.338;2023-04-21T11:21:40;99670.34;;;18.05;37.98
26859;BME280;14429;48.346;16.338;2023-04-21T11:24:07;99674.59;;;18.41;35.74
26859;BME280;14429;48.346;16.338;2023-04-21T11:26:34;99673.13;;;18.47;38.41
26859;BME280;14429;48.346;16.338;2023-04-21T11:29:01;99686.69;;;18.03;40.11
26859;BME280;14429;48.346;16.338;2023-04-21T11:31:27;99680.22;;;17.87;40.74
26859;BME280;14429;48.346;16.338;2023-04-21T11:33:55;99671.31;;;18.47;36.95
26859;BME280;14429;48.346;16.338;2023-04-21T11:36:20;99675.34;;;18.68;35.33
26859;BME280;14429;48.346;16.338;2023-04-21T11:38:46;99664.97;;;18.56;35.11
26859;BME280;14429;48.346;16.338;2023-04-21T11:41:19;99660.63;;;18.46;35.26
26859;BME280;14429;48.346;16.338;2023-04-21T11:43:45;99670.59;;;18.63;37.14
26859;BME280;14429;48.346;16.338;2023-04-21T11:46:16;99666.44;;;18.51;37.06
26859;BME280;14429;48.346;16.338;2023-04-21T11:48:42;99665.50;;;18.60;35.75
26859;BME280;14429;48.346;16.338;2023-04-21T11:51:15;99662.91;;;18.75;34.84
26859;BME280;14429;48.346;16.338;2023-04-21T11:53:41;99667.66;;;18.73;36.87
26859;BME280;14429;48.346;16.338;2023-04-21T11:56:08;99659.75;;;18.80;37.49
26859;BME280;14429;48.346;16.338;2023-04-21T11:58:33;99664.00;;;18.65;39.32
26859;BME280;14429;48.346;16.338;2023-04-21T12:01:06;99656.69;;;18.92;34.55
26859;BME280;14429;48.346;16.338;2023-04-21T12:03:31;99658.47;;;19.09;34.33
26859;BME280;14429;48.346;16.338;2023-04-21T12:05:57;99652.09;;;19.17;32.31
26859;BME280;14429;48.346;16.338;2023-04-21T12:08:24;99650.72;;;19.14;33.97
26859;BME280;14429;48.346;16.338;2023-04-21T12:10:53;99646.59;;;19.02;34.60
26859;BME280;14429;48.346;16.338;2023-04-21T12:13:21;99643.69;;;19.20;34.02
26859;BME280;14429;48.346;16.338;2023-04-21T12:15:47;99634.19;;;19.17;34.07
26859;BME280;14429;48.346;16.338;2023-04-21T12:18:13;99642.25;;;19.09;35.04
26859;BME280;14429;48.346;16.338;2023-04-21T12:20:47;99640.09;;;19.12;34.75
26859;BME280;14429;48.346;16.338;2023-04-21T12:23:13;99640.97;;;19.20;33.62
26859;BME280;14429;48.346;16.338;2023-04-21T12:25:40;99645.66;;;19.11;33.99
26859;BME280;14429;48.346;16.338;2023-04-21T12:28:07;99643.50;;;19.14;35.25
26859;BME280;14429;48.346;16.338;2023-04-21T12:30:33;99637.59;;;18.93;37.21
26859;BME280;14429;48.346;16.338;2023-04-21T12:32:58;99632.59;;;19.31;36.76
26859;BME280;14429;48.346;16.338;2023-04-21T12:35:24;99622.44;;;19.25;35.89
26859;BME280;14429;48.346;16.338;2023-04-21T12:37:50;99630.53;;;19.25;34.80
26859;BME280;14429;48.346;16.338;2023-04-21T12:40:15;99627.38;;;19.38;34.25
26859;BME280;14429;48.346;16.338;2023-04-21T12:42:42;99626.34;;;19.06;36.48
26859;BME280;14429;48.346;16.338;2023-04-21T12:45:08;99626.38;;;19.14;33.78